Nashville, Tennessee
Traffic Map
Current Weather Conditions
Nashville, Tennessee
Scattered Clouds
Scattered Clouds
80°
Feels Like: 81°
Wind Chill: 80° Ceiling: Unl
Heat Index: 81° Visibility: 10mi
Dew Point: 61° Wind: 7mph
Humidity: 52% Direction: 270° (W)
Pressure: 30in Gusts: 0mph
Raw Report DataKBNA 251953Z 27006KT 10SM FEW060 SCT250 27/16 A3000 RMK AO2 SLP153 T02670161
Traffic Incident Summary
Active as of:
Severity:
Category:
InformationThere was an issue retrieving the traffic information for this location. Please try a different location or try again shortly.
Advertisements
Track Severe Weather on mobile